sensor_id;sensor_type;location;lat;lon;timestamp;P1;durP1;ratioP1;P2;durP2;ratioP2
42246;SDS011;27913;42.722;23.268;2022-08-16T00:03:51;10.98;;;6.28;;
42246;SDS011;27913;42.722;23.268;2022-08-16T00:06:23;11.40;;;6.40;;
42246;SDS011;27913;42.722;23.268;2022-08-16T00:08:48;13.35;;;6.18;;
42246;SDS011;27913;42.722;23.268;2022-08-16T00:11:14;10.18;;;5.47;;
42246;SDS011;27913;42.722;23.268;2022-08-16T00:13:39;12.75;;;6.53;;
42246;SDS011;27913;42.722;23.268;2022-08-16T00:16:05;10.77;;;6.40;;
42246;SDS011;27913;42.722;23.268;2022-08-16T00:18:30;11.95;;;5.95;;
42246;SDS011;27913;42.722;23.268;2022-08-16T00:20:57;10.07;;;6.03;;
42246;SDS011;27913;42.722;23.268;2022-08-16T00:23:23;10.13;;;6.00;;
42246;SDS011;27913;42.722;23.268;2022-08-16T00:25:48;12.45;;;6.18;;
42246;SDS011;27913;42.722;23.268;2022-08-16T00:28:14;14.27;;;6.80;;
42246;SDS011;27913;42.722;23.268;2022-08-16T00:30:40;12.32;;;6.40;;
42246;SDS011;27913;42.722;23.268;2022-08-16T00:33:05;13.27;;;6.47;;
42246;SDS011;27913;42.722;23.268;2022-08-16T00:35:32;10.10;;;5.95;;
42246;SDS011;27913;42.722;23.268;2022-08-16T00:38:00;12.20;;;7.03;;
42246;SDS011;27913;42.722;23.268;2022-08-16T00:40:37;11.30;;;6.72;;
42246;SDS011;27913;42.722;23.268;2022-08-16T00:43:06;17.20;;;6.55;;
42246;SDS011;27913;42.722;23.268;2022-08-16T00:48:22;11.10;;;6.20;;
42246;SDS011;27913;42.722;23.268;2022-08-16T00:50:48;11.27;;;6.57;;
42246;SDS011;27913;42.722;23.268;2022-08-16T00:53:14;14.93;;;6.18;;
42246;SDS011;27913;42.722;23.268;2022-08-16T00:55:46;10.85;;;5.93;;
42246;SDS011;27913;42.722;23.268;2022-08-16T00:58:13;11.13;;;5.43;;
42246;SDS011;27913;42.722;23.268;2022-08-16T01:00:40;9.65;;;5.55;;
42246;SDS011;27913;42.722;23.268;2022-08-16T01:03:08;13.82;;;5.47;;
42246;SDS011;27913;42.722;23.268;2022-08-16T01:05:36;9.70;;;5.88;;
42246;SDS011;27913;42.722;23.268;2022-08-16T01:08:03;9.38;;;4.97;;
42246;SDS011;27913;42.722;23.268;2022-08-16T01:10:31;10.70;;;5.88;;
42246;SDS011;27913;42.722;23.268;2022-08-16T01:13:11;10.23;;;5.55;;
42246;SDS011;27913;42.722;23.268;2022-08-16T01:15:42;9.60;;;5.15;;
42246;SDS011;27913;42.722;23.268;2022-08-16T01:18:11;10.03;;;5.00;;
42246;SDS011;27913;42.722;23.268;2022-08-16T01:20:43;10.20;;;5.80;;
42246;SDS011;27913;42.722;23.268;2022-08-16T01:26:34;11.13;;;5.80;;
42246;SDS011;27913;42.722;23.268;2022-08-16T01:29:02;9.82;;;6.07;;
42246;SDS011;27913;42.722;23.268;2022-08-16T01:31:32;10.60;;;6.00;;
42246;SDS011;27913;42.722;23.268;2022-08-16T01:33:57;11.95;;;6.40;;
42246;SDS011;27913;42.722;23.268;2022-08-16T01:36:23;11.27;;;6.43;;
42246;SDS011;27913;42.722;23.268;2022-08-16T01:38:49;10.90;;;6.38;;
42246;SDS011;27913;42.722;23.268;2022-08-16T01:41:16;10.85;;;5.82;;
42246;SDS011;27913;42.722;23.268;2022-08-16T01:43:45;10.82;;;6.28;;
42246;SDS011;27913;42.722;23.268;2022-08-16T01:46:26;14.05;;;6.45;;
42246;SDS011;27913;42.722;23.268;2022-08-16T01:49:03;10.05;;;6.03;;
42246;SDS011;27913;42.722;23.268;2022-08-16T01:51:32;10.48;;;5.97;;
42246;SDS011;27913;42.722;23.268;2022-08-16T01:53:58;10.68;;;5.65;;
42246;SDS011;27913;42.722;23.268;2022-08-16T01:56:24;11.10;;;6.00;;
42246;SDS011;27913;42.722;23.268;2022-08-16T01:58:50;10.43;;;5.65;;
42246;SDS011;27913;42.722;23.268;2022-08-16T02:01:17;11.10;;;5.63;;
42246;SDS011;27913;42.722;23.268;2022-08-16T02:03:43;14.68;;;6.30;;
42246;SDS011;27913;42.722;23.268;2022-08-16T02:06:08;11.65;;;6.35;;
42246;SDS011;27913;42.722;23.268;2022-08-16T02:08:34;8.70;;;4.85;;
42246;SDS011;27913;42.722;23.268;2022-08-16T02:11:02;10.93;;;4.20;;
42246;SDS011;27913;42.722;23.268;2022-08-16T02:13:29;11.48;;;5.93;;
42246;SDS011;27913;42.722;23.268;2022-08-16T02:15:54;11.52;;;5.97;;
42246;SDS011;27913;42.722;23.268;2022-08-16T02:18:20;13.35;;;7.15;;
42246;SDS011;27913;42.722;23.268;2022-08-16T02:20:46;11.00;;;5.70;;
42246;SDS011;27913;42.722;23.268;2022-08-16T02:23:15;11.43;;;6.80;;
42246;SDS011;27913;42.722;23.268;2022-08-16T02:25:42;13.20;;;6.82;;
42246;SDS011;27913;42.722;23.268;2022-08-16T02:28:09;11.90;;;7.32;;
42246;SDS011;27913;42.722;23.268;2022-08-16T02:30:34;14.27;;;6.85;;
42246;SDS011;27913;42.722;23.268;2022-08-16T02:33:00;14.65;;;7.20;;
42246;SDS011;27913;42.722;23.268;2022-08-16T02:35:27;11.07;;;6.72;;
42246;SDS011;27913;42.722;23.268;2022-08-16T02:37:53;11.55;;;6.45;;
42246;SDS011;27913;42.722;23.268;2022-08-16T02:40:19;14.30;;;6.45;;
42246;SDS011;27913;42.722;23.268;2022-08-16T02:42:48;11.55;;;6.10;;
42246;SDS011;27913;42.722;23.268;2022-08-16T02:45:15;10.52;;;6.20;;
42246;SDS011;27913;42.722;23.268;2022-08-16T02:47:43;14.80;;;6.55;;
42246;SDS011;27913;42.722;23.268;2022-08-16T02:50:08;12.45;;;6.53;;
42246;SDS011;27913;42.722;23.268;2022-08-16T02:52:34;13.25;;;6.93;;
42246;SDS011;27913;42.722;23.268;2022-08-16T02:55:00;11.75;;;6.80;;
42246;SDS011;27913;42.722;23.268;2022-08-16T02:57:26;13.43;;;6.50;;
42246;SDS011;27913;42.722;23.268;2022-08-16T02:59:51;11.45;;;6.60;;
42246;SDS011;27913;42.722;23.268;2022-08-16T03:02:17;13.55;;;6.70;;
42246;SDS011;27913;42.722;23.268;2022-08-16T03:04:43;11.52;;;6.38;;
42246;SDS011;27913;42.722;23.268;2022-08-16T03:07:09;11.60;;;6.25;;
42246;SDS011;27913;42.722;23.268;2022-08-16T03:09:35;14.23;;;6.78;;
42246;SDS011;27913;42.722;23.268;2022-08-16T03:12:02;17.42;;;6.50;;
42246;SDS011;27913;42.722;23.268;2022-08-16T03:14:29;11.55;;;6.40;;
42246;SDS011;27913;42.722;23.268;2022-08-16T03:16:55;11.43;;;6.97;;
42246;SDS011;27913;42.722;23.268;2022-08-16T03:19:21;11.57;;;6.70;;
42246;SDS011;27913;42.722;23.268;2022-08-16T03:21:46;20.13;;;7.82;;
42246;SDS011;27913;42.722;23.268;2022-08-16T03:24:12;12.95;;;6.70;;
42246;SDS011;27913;42.722;23.268;2022-08-16T03:26:38;17.70;;;6.35;;
42246;SDS011;27913;42.722;23.268;2022-08-16T03:29:03;10.80;;;6.28;;
42246;SDS011;27913;42.722;23.268;2022-08-16T03:31:29;10.05;;;5.93;;
42246;SDS011;27913;42.722;23.268;2022-08-16T03:33:55;11.18;;;6.30;;
42246;SDS011;27913;42.722;23.268;2022-08-16T03:36:20;10.73;;;5.75;;
42246;SDS011;27913;42.722;23.268;2022-08-16T03:38:45;11.55;;;6.22;;
42246;SDS011;27913;42.722;23.268;2022-08-16T03:41:11;11.10;;;6.38;;
42246;SDS011;27913;42.722;23.268;2022-08-16T03:43:37;12.50;;;6.88;;
42246;SDS011;27913;42.722;23.268;2022-08-16T03:46:03;10.27;;;6.05;;
42246;SDS011;27913;42.722;23.268;2022-08-16T03:48:29;10.57;;;6.18;;
42246;SDS011;27913;42.722;23.268;2022-08-16T03:50:57;11.85;;;6.10;;
42246;SDS011;27913;42.722;23.268;2022-08-16T03:53:27;10.65;;;4.70;;
42246;SDS011;27913;42.722;23.268;2022-08-16T03:55:53;10.15;;;5.47;;
42246;SDS011;27913;42.722;23.268;2022-08-16T03:58:19;11.73;;;5.00;;
42246;SDS011;27913;42.722;23.268;2022-08-16T04:00:45;10.25;;;4.60;;
42246;SDS011;27913;42.722;23.268;2022-08-16T04:03:10;8.13;;;4.47;;
42246;SDS011;27913;42.722;23.268;2022-08-16T04:05:43;6.70;;;4.10;;
42246;SDS011;27913;42.722;23.268;2022-08-16T04:08:11;9.93;;;4.25;;
42246;SDS011;27913;42.722;23.268;2022-08-16T04:10:37;8.48;;;4.10;;
42246;SDS011;27913;42.722;23.268;2022-08-16T04:13:03;6.95;;;3.83;;
42246;SDS011;27913;42.722;23.268;2022-08-16T04:15:29;7.63;;;4.22;;
42246;SDS011;27913;42.722;23.268;2022-08-16T04:17:55;6.43;;;3.67;;
42246;SDS011;27913;42.722;23.268;2022-08-16T04:20:22;9.00;;;4.60;;
42246;SDS011;27913;42.722;23.268;2022-08-16T04:22:48;7.47;;;3.90;;
42246;SDS011;27913;42.722;23.268;2022-08-16T04:25:14;8.50;;;4.22;;
42246;SDS011;27913;42.722;23.268;2022-08-16T04:27:40;7.80;;;3.75;;
42246;SDS011;27913;42.722;23.268;2022-08-16T04:30:07;8.43;;;4.43;;
42246;SDS011;27913;42.722;23.268;2022-08-16T04:32:36;8.82;;;4.63;;
42246;SDS011;27913;42.722;23.268;2022-08-16T04:35:06;9.48;;;5.18;;
42246;SDS011;27913;42.722;23.268;2022-08-16T04:37:34;8.10;;;4.35;;
42246;SDS011;27913;42.722;23.268;2022-08-16T04:40:00;7.00;;;3.90;;
42246;SDS011;27913;42.722;23.268;2022-08-16T04:42:26;8.18;;;4.55;;
42246;SDS011;27913;42.722;23.268;2022-08-16T04:44:52;9.55;;;5.28;;
42246;SDS011;27913;42.722;23.268;2022-08-16T04:47:19;10.30;;;5.13;;
42246;SDS011;27913;42.722;23.268;2022-08-16T04:49:45;11.07;;;4.75;;
42246;SDS011;27913;42.722;23.268;2022-08-16T04:52:10;9.73;;;5.68;;
42246;SDS011;27913;42.722;23.268;2022-08-16T04:54:36;9.50;;;5.63;;
42246;SDS011;27913;42.722;23.268;2022-08-16T04:57:02;10.98;;;5.97;;
42246;SDS011;27913;42.722;23.268;2022-08-16T04:59:27;11.52;;;5.78;;
42246;SDS011;27913;42.722;23.268;2022-08-16T05:01:53;9.35;;;5.18;;
42246;SDS011;27913;42.722;23.268;2022-08-16T05:04:21;9.82;;;5.82;;
42246;SDS011;27913;42.722;23.268;2022-08-16T05:06:47;11.07;;;5.30;;
42246;SDS011;27913;42.722;23.268;2022-08-16T05:09:13;9.18;;;5.10;;
42246;SDS011;27913;42.722;23.268;2022-08-16T05:11:38;8.30;;;4.68;;
42246;SDS011;27913;42.722;23.268;2022-08-16T05:14:04;10.23;;;5.13;;
42246;SDS011;27913;42.722;23.268;2022-08-16T05:16:30;8.23;;;4.97;;
42246;SDS011;27913;42.722;23.268;2022-08-16T05:18:56;11.68;;;5.47;;
42246;SDS011;27913;42.722;23.268;2022-08-16T05:21:24;8.70;;;4.53;;
42246;SDS011;27913;42.722;23.268;2022-08-16T05:23:52;10.15;;;5.07;;
42246;SDS011;27913;42.722;23.268;2022-08-16T05:26:19;10.63;;;4.97;;
42246;SDS011;27913;42.722;23.268;2022-08-16T05:28:44;8.52;;;4.97;;
42246;SDS011;27913;42.722;23.268;2022-08-16T05:31:11;8.85;;;5.10;;
42246;SDS011;27913;42.722;23.268;2022-08-16T05:33:36;9.82;;;5.47;;
42246;SDS011;27913;42.722;23.268;2022-08-16T05:36:03;9.15;;;5.00;;
42246;SDS011;27913;42.722;23.268;2022-08-16T05:38:28;8.73;;;4.93;;
42246;SDS011;27913;42.722;23.268;2022-08-16T05:40:54;10.43;;;5.07;;
42246;SDS011;27913;42.722;23.268;2022-08-16T05:43:21;10.02;;;5.43;;
42246;SDS011;27913;42.722;23.268;2022-08-16T05:45:48;9.57;;;5.15;;
42246;SDS011;27913;42.722;23.268;2022-08-16T05:48:14;8.25;;;5.03;;
42246;SDS011;27913;42.722;23.268;2022-08-16T05:50:40;9.10;;;5.03;;
42246;SDS011;27913;42.722;23.268;2022-08-16T05:53:06;9.32;;;5.13;;
42246;SDS011;27913;42.722;23.268;2022-08-16T05:55:31;8.88;;;4.70;;
42246;SDS011;27913;42.722;23.268;2022-08-16T05:57:57;9.90;;;5.68;;
42246;SDS011;27913;42.722;23.268;2022-08-16T06:00:22;9.85;;;5.20;;
42246;SDS011;27913;42.722;23.268;2022-08-16T06:02:49;8.73;;;4.82;;
42246;SDS011;27913;42.722;23.268;2022-08-16T06:05:14;9.25;;;4.35;;
42246;SDS011;27913;42.722;23.268;2022-08-16T06:07:40;9.68;;;4.57;;
42246;SDS011;27913;42.722;23.268;2022-08-16T06:10:06;8.25;;;4.57;;
42246;SDS011;27913;42.722;23.268;2022-08-16T06:12:32;11.32;;;5.13;;
42246;SDS011;27913;42.722;23.268;2022-08-16T06:14:58;8.38;;;4.32;;
42246;SDS011;27913;42.722;23.268;2022-08-16T06:17:27;8.25;;;4.78;;
42246;SDS011;27913;42.722;23.268;2022-08-16T06:19:53;7.97;;;4.55;;
42246;SDS011;27913;42.722;23.268;2022-08-16T06:22:19;8.77;;;4.32;;
42246;SDS011;27913;42.722;23.268;2022-08-16T06:24:45;9.05;;;5.20;;
42246;SDS011;27913;42.722;23.268;2022-08-16T06:27:10;8.85;;;5.15;;
42246;SDS011;27913;42.722;23.268;2022-08-16T06:29:36;7.93;;;4.57;;
42246;SDS011;27913;42.722;23.268;2022-08-16T06:32:02;8.45;;;4.57;;
42246;SDS011;27913;42.722;23.268;2022-08-16T06:34:27;9.35;;;5.05;;
42246;SDS011;27913;42.722;23.268;2022-08-16T06:36:53;8.60;;;5.00;;
42246;SDS011;27913;42.722;23.268;2022-08-16T06:39:19;8.43;;;5.00;;
42246;SDS011;27913;42.722;23.268;2022-08-16T06:41:45;8.23;;;4.68;;
42246;SDS011;27913;42.722;23.268;2022-08-16T06:44:10;9.10;;;4.88;;
42246;SDS011;27913;42.722;23.268;2022-08-16T06:46:36;8.80;;;4.93;;
42246;SDS011;27913;42.722;23.268;2022-08-16T06:49:03;8.80;;;4.57;;
42246;SDS011;27913;42.722;23.268;2022-08-16T06:51:32;9.75;;;5.35;;
42246;SDS011;27913;42.722;23.268;2022-08-16T06:53:57;9.95;;;4.50;;
42246;SDS011;27913;42.722;23.268;2022-08-16T06:56:23;10.07;;;4.90;;
42246;SDS011;27913;42.722;23.268;2022-08-16T06:58:50;10.15;;;4.82;;
42246;SDS011;27913;42.722;23.268;2022-08-16T07:01:16;9.65;;;4.97;;
42246;SDS011;27913;42.722;23.268;2022-08-16T07:03:42;9.60;;;5.53;;
42246;SDS011;27913;42.722;23.268;2022-08-16T07:06:07;12.38;;;4.97;;
42246;SDS011;27913;42.722;23.268;2022-08-16T07:08:33;8.75;;;4.72;;
42246;SDS011;27913;42.722;23.268;2022-08-16T07:10:59;9.90;;;4.53;;
42246;SDS011;27913;42.722;23.268;2022-08-16T07:13:25;8.05;;;4.78;;
42246;SDS011;27913;42.722;23.268;2022-08-16T07:15:51;8.85;;;4.72;;
42246;SDS011;27913;42.722;23.268;2022-08-16T07:18:17;8.77;;;4.50;;
42246;SDS011;27913;42.722;23.268;2022-08-16T07:20:46;8.13;;;4.00;;
42246;SDS011;27913;42.722;23.268;2022-08-16T07:23:13;8.45;;;4.60;;
42246;SDS011;27913;42.722;23.268;2022-08-16T07:25:39;8.82;;;4.75;;
42246;SDS011;27913;42.722;23.268;2022-08-16T07:28:05;7.07;;;3.90;;
42246;SDS011;27913;42.722;23.268;2022-08-16T07:30:31;8.25;;;4.30;;
42246;SDS011;27913;42.722;23.268;2022-08-16T07:32:58;8.02;;;4.72;;
42246;SDS011;27913;42.722;23.268;2022-08-16T07:35:24;8.50;;;4.07;;
42246;SDS011;27913;42.722;23.268;2022-08-16T07:37:50;8.43;;;4.43;;
42246;SDS011;27913;42.722;23.268;2022-08-16T07:40:15;8.60;;;4.38;;
42246;SDS011;27913;42.722;23.268;2022-08-16T07:42:41;7.43;;;4.15;;
42246;SDS011;27913;42.722;23.268;2022-08-16T07:45:07;6.85;;;3.70;;
42246;SDS011;27913;42.722;23.268;2022-08-16T07:47:33;6.00;;;3.38;;
42246;SDS011;27913;42.722;23.268;2022-08-16T07:49:59;6.10;;;3.42;;
42246;SDS011;27913;42.722;23.268;2022-08-16T07:52:25;7.45;;;3.05;;
42246;SDS011;27913;42.722;23.268;2022-08-16T07:54:50;5.18;;;2.55;;
42246;SDS011;27913;42.722;23.268;2022-08-16T07:57:16;5.97;;;2.90;;
42246;SDS011;27913;42.722;23.268;2022-08-16T07:59:42;6.28;;;3.10;;
42246;SDS011;27913;42.722;23.268;2022-08-16T08:02:10;5.15;;;2.70;;
42246;SDS011;27913;42.722;23.268;2022-08-16T08:04:38;6.97;;;3.13;;
42246;SDS011;27913;42.722;23.268;2022-08-16T08:07:03;5.03;;;2.58;;
42246;SDS011;27913;42.722;23.268;2022-08-16T08:09:29;4.68;;;2.40;;
42246;SDS011;27913;42.722;23.268;2022-08-16T08:11:54;5.40;;;2.70;;
42246;SDS011;27913;42.722;23.268;2022-08-16T08:14:20;5.85;;;2.88;;
42246;SDS011;27913;42.722;23.268;2022-08-16T08:16:46;4.70;;;2.47;;
42246;SDS011;27913;42.722;23.268;2022-08-16T08:19:12;5.55;;;2.70;;
42246;SDS011;27913;42.722;23.268;2022-08-16T08:21:38;6.30;;;3.10;;
42246;SDS011;27913;42.722;23.268;2022-08-16T08:24:06;4.40;;;2.22;;
42246;SDS011;27913;42.722;23.268;2022-08-16T08:26:34;5.65;;;3.08;;
42246;SDS011;27913;42.722;23.268;2022-08-16T08:29:00;4.95;;;2.75;;
42246;SDS011;27913;42.722;23.268;2022-08-16T08:31:26;6.22;;;2.47;;
42246;SDS011;27913;42.722;23.268;2022-08-16T08:33:51;6.72;;;2.47;;
42246;SDS011;27913;42.722;23.268;2022-08-16T08:36:28;4.57;;;2.30;;
42246;SDS011;27913;42.722;23.268;2022-08-16T08:38:54;3.83;;;2.25;;
42246;SDS011;27913;42.722;23.268;2022-08-16T08:41:20;6.72;;;2.40;;
42246;SDS011;27913;42.722;23.268;2022-08-16T08:43:46;4.57;;;2.08;;
42246;SDS011;27913;42.722;23.268;2022-08-16T08:46:11;4.30;;;2.30;;
42246;SDS011;27913;42.722;23.268;2022-08-16T08:48:37;4.55;;;2.47;;
42246;SDS011;27913;42.722;23.268;2022-08-16T08:51:03;4.45;;;2.40;;
42246;SDS011;27913;42.722;23.268;2022-08-16T08:53:31;5.15;;;2.40;;
42246;SDS011;27913;42.722;23.268;2022-08-16T08:55:57;4.80;;;2.75;;
42246;SDS011;27913;42.722;23.268;2022-08-16T08:58:23;4.53;;;2.55;;
42246;SDS011;27913;42.722;23.268;2022-08-16T09:00:49;4.63;;;2.47;;
42246;SDS011;27913;42.722;23.268;2022-08-16T09:03:15;4.10;;;2.03;;
42246;SDS011;27913;42.722;23.268;2022-08-16T09:05:40;5.18;;;2.88;;
42246;SDS011;27913;42.722;23.268;2022-08-16T09:08:07;6.15;;;2.55;;
42246;SDS011;27913;42.722;23.268;2022-08-16T09:10:33;4.10;;;2.20;;
42246;SDS011;27913;42.722;23.268;2022-08-16T09:12:59;4.70;;;2.47;;
42246;SDS011;27913;42.722;23.268;2022-08-16T09:15:25;4.38;;;2.40;;
42246;SDS011;27913;42.722;23.268;2022-08-16T09:17:51;4.70;;;2.33;;
42246;SDS011;27913;42.722;23.268;2022-08-16T09:20:19;4.70;;;2.55;;
42246;SDS011;27913;42.722;23.268;2022-08-16T09:22:47;4.30;;;2.13;;
42246;SDS011;27913;42.722;23.268;2022-08-16T09:25:14;4.72;;;2.53;;
42246;SDS011;27913;42.722;23.268;2022-08-16T09:27:40;4.45;;;2.47;;
42246;SDS011;27913;42.722;23.268;2022-08-16T09:30:06;4.85;;;2.60;;
42246;SDS011;27913;42.722;23.268;2022-08-16T09:32:33;5.28;;;2.45;;
42246;SDS011;27913;42.722;23.268;2022-08-16T09:34:58;5.78;;;2.30;;
42246;SDS011;27913;42.722;23.268;2022-08-16T09:37:29;3.78;;;1.65;;
42246;SDS011;27913;42.722;23.268;2022-08-16T09:39:56;5.00;;;2.47;;
42246;SDS011;27913;42.722;23.268;2022-08-16T09:42:22;4.88;;;2.40;;
42246;SDS011;27913;42.722;23.268;2022-08-16T09:44:47;4.65;;;1.73;;
42246;SDS011;27913;42.722;23.268;2022-08-16T09:47:13;5.72;;;3.10;;
42246;SDS011;27913;42.722;23.268;2022-08-16T09:49:38;4.40;;;2.50;;
42246;SDS011;27913;42.722;23.268;2022-08-16T09:52:04;4.78;;;2.40;;
42246;SDS011;27913;42.722;23.268;2022-08-16T09:54:30;4.78;;;2.55;;
42246;SDS011;27913;42.722;23.268;2022-08-16T09:56:55;4.95;;;2.53;;
42246;SDS011;27913;42.722;23.268;2022-08-16T09:59:22;3.85;;;2.40;;
42246;SDS011;27913;42.722;23.268;2022-08-16T10:01:49;3.08;;;1.63;;
42246;SDS011;27913;42.722;23.268;2022-08-16T10:04:15;4.32;;;2.35;;
42246;SDS011;27913;42.722;23.268;2022-08-16T10:06:42;4.47;;;2.42;;
42246;SDS011;27913;42.722;23.268;2022-08-16T10:09:10;4.78;;;2.67;;
42246;SDS011;27913;42.722;23.268;2022-08-16T10:11:36;4.65;;;2.47;;
42246;SDS011;27913;42.722;23.268;2022-08-16T10:14:21;4.35;;;2.33;;
42246;SDS011;27913;42.722;23.268;2022-08-16T10:16:48;4.50;;;2.45;;
42246;SDS011;27913;42.722;23.268;2022-08-16T10:19:13;4.60;;;2.58;;
42246;SDS011;27913;42.722;23.268;2022-08-16T10:21:40;4.10;;;2.45;;
42246;SDS011;27913;42.722;23.268;2022-08-16T10:24:06;5.38;;;3.40;;
42246;SDS011;27913;42.722;23.268;2022-08-16T10:26:32;4.47;;;2.50;;
42246;SDS011;27913;42.722;23.268;2022-08-16T10:28:59;5.20;;;2.60;;
42246;SDS011;27913;42.722;23.268;2022-08-16T10:31:26;3.20;;;2.13;;
42246;SDS011;27913;42.722;23.268;2022-08-16T10:33:51;5.80;;;3.00;;
42246;SDS011;27913;42.722;23.268;2022-08-16T10:36:18;5.00;;;2.47;;
42246;SDS011;27913;42.722;23.268;2022-08-16T10:38:44;3.95;;;2.20;;
42246;SDS011;27913;42.722;23.268;2022-08-16T10:41:10;5.63;;;2.97;;
42246;SDS011;27913;42.722;23.268;2022-08-16T10:43:36;5.43;;;3.08;;
42246;SDS011;27913;42.722;23.268;2022-08-16T10:46:05;6.43;;;3.13;;
42246;SDS011;27913;42.722;23.268;2022-08-16T10:48:33;6.57;;;3.30;;
42246;SDS011;27913;42.722;23.268;2022-08-16T10:50:59;7.47;;;3.00;;
42246;SDS011;27913;42.722;23.268;2022-08-16T10:53:29;7.80;;;2.92;;
42246;SDS011;27913;42.722;23.268;2022-08-16T10:55:56;5.00;;;2.78;;
42246;SDS011;27913;42.722;23.268;2022-08-16T10:58:23;6.82;;;3.05;;
42246;SDS011;27913;42.722;23.268;2022-08-16T11:00:49;4.40;;;2.45;;
42246;SDS011;27913;42.722;23.268;2022-08-16T11:03:15;4.63;;;2.38;;
42246;SDS011;27913;42.722;23.268;2022-08-16T11:05:40;4.75;;;2.60;;
42246;SDS011;27913;42.722;23.268;2022-08-16T11:08:08;4.55;;;2.50;;
42246;SDS011;27913;42.722;23.268;2022-08-16T11:10:37;4.57;;;2.50;;
42246;SDS011;27913;42.722;23.268;2022-08-16T11:13:05;5.65;;;2.72;;
42246;SDS011;27913;42.722;23.268;2022-08-16T11:15:34;4.97;;;2.35;;
42246;SDS011;27913;42.722;23.268;2022-08-16T11:18:00;3.22;;;2.03;;
42246;SDS011;27913;42.722;23.268;2022-08-16T11:20:26;6.28;;;3.08;;
42246;SDS011;27913;42.722;23.268;2022-08-16T11:22:52;5.10;;;2.58;;
42246;SDS011;27913;42.722;23.268;2022-08-16T11:25:23;4.72;;;2.53;;
42246;SDS011;27913;42.722;23.268;2022-08-16T11:27:50;5.93;;;3.25;;
42246;SDS011;27913;42.722;23.268;2022-08-16T11:30:19;8.35;;;3.45;;
42246;SDS011;27913;42.722;23.268;2022-08-16T11:32:44;6.55;;;2.58;;
42246;SDS011;27913;42.722;23.268;2022-08-16T11:35:12;4.93;;;2.60;;
42246;SDS011;27913;42.722;23.268;2022-08-16T11:37:45;6.63;;;2.90;;
42246;SDS011;27913;42.722;23.268;2022-08-16T11:40:13;5.63;;;3.05;;
42246;SDS011;27913;42.722;23.268;2022-08-16T11:42:39;5.90;;;3.15;;
42246;SDS011;27913;42.722;23.268;2022-08-16T11:45:05;5.68;;;2.97;;
42246;SDS011;27913;42.722;23.268;2022-08-16T11:47:31;5.28;;;2.75;;
42246;SDS011;27913;42.722;23.268;2022-08-16T11:49:56;6.13;;;3.03;;
42246;SDS011;27913;42.722;23.268;2022-08-16T11:52:22;4.35;;;2.25;;
42246;SDS011;27913;42.722;23.268;2022-08-16T11:54:48;5.07;;;2.80;;
42246;SDS011;27913;42.722;23.268;2022-08-16T11:57:14;4.35;;;2.40;;
42246;SDS011;27913;42.722;23.268;2022-08-16T11:59:40;6.05;;;3.10;;
42246;SDS011;27913;42.722;23.268;2022-08-16T12:02:06;6.35;;;3.13;;
42246;SDS011;27913;42.722;23.268;2022-08-16T12:04:33;5.43;;;2.88;;
42246;SDS011;27913;42.722;23.268;2022-08-16T12:07:00;5.97;;;2.85;;
42246;SDS011;27913;42.722;23.268;2022-08-16T12:09:27;4.50;;;2.75;;
42246;SDS011;27913;42.722;23.268;2022-08-16T12:11:54;5.68;;;3.50;;
42246;SDS011;27913;42.722;23.268;2022-08-16T12:14:21;7.82;;;3.13;;
42246;SDS011;27913;42.722;23.268;2022-08-16T12:16:47;7.13;;;3.15;;
42246;SDS011;27913;42.722;23.268;2022-08-16T12:19:13;8.07;;;4.85;;
42246;SDS011;27913;42.722;23.268;2022-08-16T12:21:39;7.32;;;2.85;;
42246;SDS011;27913;42.722;23.268;2022-08-16T12:24:06;6.35;;;2.67;;
42246;SDS011;27913;42.722;23.268;2022-08-16T12:26:32;7.60;;;3.20;;
42246;SDS011;27913;42.722;23.268;2022-08-16T12:28:58;6.45;;;2.92;;
42246;SDS011;27913;42.722;23.268;2022-08-16T12:31:26;11.75;;;3.17;;
42246;SDS011;27913;42.722;23.268;2022-08-16T12:33:52;7.35;;;4.10;;
42246;SDS011;27913;42.722;23.268;2022-08-16T12:36:18;6.70;;;3.97;;
42246;SDS011;27913;42.722;23.268;2022-08-16T12:38:44;6.60;;;3.00;;
42246;SDS011;27913;42.722;23.268;2022-08-16T12:41:10;6.25;;;3.22;;
42246;SDS011;27913;42.722;23.268;2022-08-16T12:43:37;7.15;;;3.10;;
42246;SDS011;27913;42.722;23.268;2022-08-16T12:46:06;5.25;;;2.97;;
42246;SDS011;27913;42.722;23.268;2022-08-16T12:48:33;4.90;;;2.97;;
42246;SDS011;27913;42.722;23.268;2022-08-16T12:51:19;5.25;;;2.90;;
42246;SDS011;27913;42.722;23.268;2022-08-16T12:53:47;5.03;;;2.83;;
42246;SDS011;27913;42.722;23.268;2022-08-16T12:56:16;3.70;;;1.90;;
42246;SDS011;27913;42.722;23.268;2022-08-16T12:58:43;4.63;;;2.03;;
42246;SDS011;27913;42.722;23.268;2022-08-16T13:01:11;3.88;;;2.17;;
42246;SDS011;27913;42.722;23.268;2022-08-16T13:03:36;4.22;;;1.85;;
42246;SDS011;27913;42.722;23.268;2022-08-16T13:06:03;3.20;;;1.58;;
42246;SDS011;27913;42.722;23.268;2022-08-16T13:08:29;4.85;;;1.65;;
42246;SDS011;27913;42.722;23.268;2022-08-16T13:10:54;3.13;;;1.52;;
42246;SDS011;27913;42.722;23.268;2022-08-16T13:13:22;2.55;;;1.38;;
42246;SDS011;27913;42.722;23.268;2022-08-16T13:15:52;4.05;;;1.38;;
42246;SDS011;27913;42.722;23.268;2022-08-16T13:18:19;4.60;;;1.60;;
42246;SDS011;27913;42.722;23.268;2022-08-16T13:20:46;2.30;;;1.20;;
42246;SDS011;27913;42.722;23.268;2022-08-16T13:23:12;3.13;;;1.60;;
42246;SDS011;27913;42.722;23.268;2022-08-16T13:25:39;3.03;;;1.40;;
42246;SDS011;27913;42.722;23.268;2022-08-16T13:28:07;6.05;;;1.83;;
42246;SDS011;27913;42.722;23.268;2022-08-16T13:30:36;3.92;;;1.50;;
42246;SDS011;27913;42.722;23.268;2022-08-16T13:33:04;1.60;;;1.00;;
42246;SDS011;27913;42.722;23.268;2022-08-16T13:35:30;2.78;;;1.60;;
42246;SDS011;27913;42.722;23.268;2022-08-16T13:37:58;7.10;;;1.63;;
42246;SDS011;27913;42.722;23.268;2022-08-16T13:40:23;5.10;;;1.77;;
42246;SDS011;27913;42.722;23.268;2022-08-16T13:42:51;4.32;;;1.60;;
42246;SDS011;27913;42.722;23.268;2022-08-16T13:45:17;3.45;;;1.63;;
42246;SDS011;27913;42.722;23.268;2022-08-16T13:47:42;3.33;;;1.60;;
42246;SDS011;27913;42.722;23.268;2022-08-16T13:50:08;4.05;;;1.98;;
42246;SDS011;27913;42.722;23.268;2022-08-16T13:52:35;6.53;;;2.28;;
42246;SDS011;27913;42.722;23.268;2022-08-16T13:55:02;5.45;;;1.98;;
42246;SDS011;27913;42.722;23.268;2022-08-16T13:57:28;4.88;;;1.65;;
42246;SDS011;27913;42.722;23.268;2022-08-16T13:59:55;4.95;;;2.00;;
42246;SDS011;27913;42.722;23.268;2022-08-16T14:02:20;5.57;;;1.60;;
42246;SDS011;27913;42.722;23.268;2022-08-16T14:04:46;4.43;;;2.30;;
42246;SDS011;27913;42.722;23.268;2022-08-16T14:07:13;3.00;;;1.77;;
42246;SDS011;27913;42.722;23.268;2022-08-16T14:09:40;5.90;;;1.98;;
42246;SDS011;27913;42.722;23.268;2022-08-16T14:12:18;5.50;;;1.90;;
42246;SDS011;27913;42.722;23.268;2022-08-16T14:14:46;3.85;;;2.13;;
42246;SDS011;27913;42.722;23.268;2022-08-16T14:17:14;3.33;;;1.95;;
42246;SDS011;27913;42.722;23.268;2022-08-16T14:19:40;3.90;;;1.83;;
42246;SDS011;27913;42.722;23.268;2022-08-16T14:22:06;2.53;;;1.50;;
42246;SDS011;27913;42.722;23.268;2022-08-16T14:24:31;2.53;;;1.33;;
42246;SDS011;27913;42.722;23.268;2022-08-16T14:26:57;4.10;;;1.90;;
42246;SDS011;27913;42.722;23.268;2022-08-16T14:29:22;3.13;;;1.83;;
42246;SDS011;27913;42.722;23.268;2022-08-16T14:31:48;5.22;;;1.88;;
42246;SDS011;27913;42.722;23.268;2022-08-16T14:34:14;4.00;;;2.05;;
42246;SDS011;27913;42.722;23.268;2022-08-16T14:36:39;3.28;;;1.92;;